Time;durP1;ratioP1;P1;durP2;ratioP2;P2;SDS_P1;SDS_P2;PMS_P1;PMS_P2;Temp;Humidity;BMP_temperature;BMP_pressure;BME280_temperature;BME280_humidity;BME280_pressure;Samples;Min_cycle;Max_cycle;Signal;HPM_P1;HPM_P2
2022/06/04 00:00:55;;;;;;;3.63;0.80;;;14.70;99.90;;;;;;5028914;28;20409;-71
2022/06/04 00:03:21;;;;;;;2.72;0.85;;;14.60;99.90;;;;;;5027879;28;20899;-72
2022/06/04 00:05:49;;;;;;;3.28;0.77;;;14.60;99.90;;;;;;5028879;28;20041;-71
2022/06/04 00:08:15;;;;;;;3.47;1.23;;;14.60;99.90;;;;;;5028252;28;20124;-71
2022/06/04 00:16:16;;;;;;;1.50;0.55;;;14.50;99.90;;;;;;5027703;28;20699;-72
2022/06/04 00:18:43;;;;;;;1.13;0.63;;;14.50;99.90;;;;;;5029016;28;20477;-72
2022/06/04 00:21:10;;;;;;;3.03;0.93;;;14.60;99.90;;;;;;5022028;28;20045;-72
2022/06/04 00:23:36;;;;;;;1.77;0.73;;;14.50;99.90;;;;;;5025159;28;20038;-72
2022/06/04 00:26:07;;;;;;;1.23;0.80;;;14.60;99.90;;;;;;5023832;28;20150;-72
2022/06/04 00:28:33;;;;;;;2.85;0.73;;;14.50;99.90;;;;;;5028250;28;20465;-72
2022/06/04 00:30:58;;;;;;;2.75;0.77;;;14.40;99.90;;;;;;5028804;28;20114;-71
2022/06/04 00:33:24;;;;;;;2.97;0.80;;;14.40;99.90;;;;;;5027933;28;20128;-71
2022/06/04 00:35:54;;;;;;;2.22;1.38;;;14.30;99.90;;;;;;5028608;28;20037;-71
2022/06/04 00:38:23;;;;;;;3.97;1.00;;;14.20;99.90;;;;;;5027496;28;20037;-72
2022/06/04 00:41:27;;;;;;;1.27;0.80;;;14.30;99.90;;;;;;5028505;28;20033;-72
2022/06/04 00:44:02;;;;;;;1.85;0.93;;;14.30;99.90;;;;;;5020379;28;20099;-72
2022/06/04 00:47:07;;;;;;;3.05;0.93;;;14.20;99.90;;;;;;5020445;28;20040;-72
2022/06/04 00:49:33;;;;;;;2.05;1.20;;;14.20;99.90;;;;;;5022110;28;20030;-72
2022/06/04 00:51:59;;;;;;;2.88;1.00;;;14.10;99.90;;;;;;5028826;28;20382;-71
2022/06/04 00:54:25;;;;;;;3.65;1.23;;;14.10;99.90;;;;;;5027762;28;20555;-72
2022/06/04 00:56:56;;;;;;;2.55;1.17;;;14.10;99.90;;;;;;5028649;28;20041;-72
2022/06/04 00:59:44;;;;;;;2.63;1.52;;;14.00;99.90;;;;;;5019018;28;20034;-71
2022/06/04 01:02:31;;;;;;;5.45;1.67;;;14.00;99.90;;;;;;5024901;28;20041;-72
2022/06/04 01:05:34;;;;;;;2.42;1.42;;;13.90;99.90;;;;;;5014072;28;20076;-72
2022/06/04 01:08:11;;;;;;;7.45;1.38;;;13.90;99.90;;;;;;5008104;28;20037;-72
2022/06/04 01:11:18;;;;;;;6.60;1.35;;;13.80;99.90;;;;;;5028958;28;20037;-72
2022/06/04 01:14:10;;;;;;;9.35;2.42;;;13.80;99.90;;;;;;4977724;28;20635;-71
2022/06/04 01:16:50;;;;;;;3.33;1.75;;;13.80;99.90;;;;;;4975966;28;20038;-72
2022/06/04 01:19:54;;;;;;;8.55;1.85;;;13.80;99.90;;;;;;5013846;28;20553;-72
2022/06/04 01:22:46;;;;;;;6.55;1.88;;;13.70;99.90;;;;;;5023870;28;20041;-71
2022/06/04 01:25:36;;;;;;;8.38;2.20;;;13.70;99.90;;;;;;5020628;28;20385;-72
2022/06/04 01:28:06;;;;;;;4.13;2.00;;;13.70;99.90;;;;;;5023238;28;20033;-72
2022/06/04 01:30:50;;;;;;;6.20;2.40;;;13.70;99.90;;;;;;5027595;28;20276;-72
2022/06/04 01:33:53;;;;;;;3.72;2.10;;;13.60;99.90;;;;;;5027612;28;20502;-72
2022/06/04 01:36:32;;;;;;;4.68;1.90;;;13.60;99.90;;;;;;5016793;28;20033;-73
2022/06/04 01:39:07;;;;;;;8.20;3.35;;;13.60;99.90;;;;;;5025622;28;20418;-71
2022/06/04 01:41:47;;;;;;;4.70;2.17;;;13.50;99.90;;;;;;5030870;28;20026;-71
2022/06/04 01:44:31;;;;;;;5.47;2.38;;;13.60;99.90;;;;;;5030233;28;20041;-72
2022/06/04 01:47:01;;;;;;;5.22;2.40;;;13.50;99.90;;;;;;5025620;28;20834;-72
2022/06/04 01:49:47;;;;;;;5.18;2.30;;;13.50;99.90;;;;;;5030291;28;20037;-71
2022/06/04 01:52:15;;;;;;;5.07;2.78;;;13.50;99.90;;;;;;5030715;28;20030;-72
2022/06/04 01:55:10;;;;;;;7.00;1.95;;;13.40;99.90;;;;;;5031175;28;20036;-72
2022/06/04 01:57:45;;;;;;;5.30;2.13;;;13.50;99.90;;;;;;5027315;28;20029;-71
2022/06/04 02:00:16;;;;;;;6.38;2.17;;;13.40;99.90;;;;;;5030625;28;20034;-72
2022/06/04 02:02:51;;;;;;;5.63;2.63;;;13.40;99.90;;;;;;5030625;28;20029;-71
2022/06/04 02:05:24;;;;;;;4.10;2.58;;;13.40;99.90;;;;;;5030277;28;20119;-71
2022/06/04 02:07:54;;;;;;;4.65;2.20;;;13.50;99.90;;;;;;5023916;28;20041;-71
2022/06/04 02:10:31;;;;;;;7.65;2.50;;;13.40;99.90;;;;;;5022504;28;20442;-72
2022/06/04 02:13:04;;;;;;;4.55;2.33;;;13.30;99.90;;;;;;5025234;28;20042;-71
2022/06/04 02:15:38;;;;;;;5.93;2.67;;;13.40;99.90;;;;;;5029209;28;20030;-72
2022/06/04 02:18:05;;;;;;;4.50;1.77;;;13.30;99.90;;;;;;5030588;28;20061;-72
2022/06/04 02:20:31;;;;;;;4.13;2.58;;;13.30;99.90;;;;;;5027489;28;20509;-72
2022/06/04 02:22:57;;;;;;;4.80;2.25;;;13.30;99.90;;;;;;5023690;28;20048;-71
2022/06/04 02:25:23;;;;;;;10.70;2.30;;;13.30;99.90;;;;;;5023801;28;20041;-72
2022/06/04 02:27:50;;;;;;;5.35;1.90;;;13.30;99.90;;;;;;5030960;28;20029;-72
2022/06/04 02:30:17;;;;;;;5.95;2.00;;;13.30;99.90;;;;;;5021854;28;20036;-72
2022/06/04 02:33:13;;;;;;;5.00;2.30;;;13.20;99.90;;;;;;5030493;28;20033;-71
2022/06/04 02:36:06;;;;;;;5.38;2.05;;;13.20;99.90;;;;;;5027814;28;20033;-71
2022/06/04 02:38:50;;;;;;;7.72;2.00;;;13.20;99.90;;;;;;5025860;28;20658;-72
2022/06/04 02:41:22;;;;;;;9.85;2.63;;;13.20;99.90;;;;;;5021910;28;20101;-72
2022/06/04 02:44:15;;;;;;;4.97;1.98;;;13.20;99.90;;;;;;5022756;28;20037;-72
2022/06/04 02:46:49;;;;;;;4.53;1.90;;;13.20;99.90;;;;;;5027412;28;20083;-71
2022/06/04 02:49:23;;;;;;;6.05;2.30;;;13.10;99.90;;;;;;5028972;28;20042;-72
2022/06/04 02:51:53;;;;;;;6.72;2.30;;;13.10;99.90;;;;;;5016605;28;20034;-71
2022/06/04 02:54:28;;;;;;;7.00;2.40;;;13.10;99.90;;;;;;5020575;28;20033;-72
2022/06/04 02:56:56;;;;;;;7.13;2.35;;;13.00;99.90;;;;;;5024437;28;20037;-71
2022/06/04 02:59:24;;;;;;;10.90;2.50;;;13.00;99.90;;;;;;5025275;28;20038;-72
2022/06/04 03:01:54;;;;;;;8.13;2.78;;;13.00;99.90;;;;;;5030133;28;20057;-71
2022/06/04 03:04:19;;;;;;;10.60;2.30;;;12.90;99.90;;;;;;5028746;28;20044;-71
2022/06/04 03:06:45;;;;;;;6.72;2.80;;;12.90;99.90;;;;;;5018183;28;20037;-72
2022/06/04 03:09:14;;;;;;;6.32;2.45;;;12.90;99.90;;;;;;5028470;28;20026;-72
2022/06/04 03:11:45;;;;;;;4.05;2.25;;;12.90;99.90;;;;;;5029761;28;20026;-71
2022/06/04 03:14:12;;;;;;;;;;;12.80;99.90;;;;;;5029247;28;20399;-72
2022/06/04 03:16:39;;;;;;;4.50;2.03;;;12.80;99.90;;;;;;5029513;28;19917;-71
2022/06/04 03:19:07;;;;;;;8.55;2.05;;;12.80;99.90;;;;;;5029005;28;20037;-71
2022/06/04 03:21:34;;;;;;;5.65;2.20;;;12.80;99.90;;;;;;5027455;28;20025;-72
2022/06/04 03:24:00;;;;;;;5.25;2.42;;;12.80;99.90;;;;;;5026720;28;20080;-72
2022/06/04 03:26:26;;;;;;;4.55;2.58;;;12.80;99.90;;;;;;5026741;28;20060;-72
2022/06/04 03:28:51;;;;;;;6.60;2.25;;;12.70;99.90;;;;;;5029994;28;20035;-72
2022/06/04 03:31:17;;;;;;;7.78;2.47;;;12.70;99.90;;;;;;5029215;28;20037;-71
2022/06/04 03:33:43;;;;;;;8.43;2.58;;;12.60;99.90;;;;;;5021957;28;20120;-71
2022/06/04 03:36:10;;;;;;;11.93;2.42;;;12.60;99.90;;;;;;5029278;28;20099;-71
2022/06/04 03:38:36;;;;;;;6.35;2.17;;;12.70;99.90;;;;;;5028838;28;20049;-71
2022/06/04 03:41:02;;;;;;;6.63;2.67;;;12.60;99.90;;;;;;5029271;28;20521;-71
2022/06/04 03:43:27;;;;;;;13.70;2.28;;;12.60;99.90;;;;;;5026338;28;20564;-72
2022/06/04 03:45:53;;;;;;;4.32;2.15;;;12.70;99.90;;;;;;5029460;28;20435;-71
2022/06/04 03:48:19;;;;;;;5.18;2.08;;;12.60;99.90;;;;;;5028274;28;20033;-71
2022/06/04 03:50:44;;;;;;;4.88;2.40;;;12.60;99.90;;;;;;5029644;28;20086;-71
2022/06/04 03:53:10;;;;;;;4.43;2.25;;;12.60;99.90;;;;;;5028317;28;20033;-72
2022/06/04 03:55:36;;;;;;;4.40;1.77;;;12.70;99.90;;;;;;5028898;28;20061;-72
2022/06/04 03:58:01;;;;;;;5.00;2.38;;;12.70;99.90;;;;;;5027416;28;20041;-71
2022/06/04 04:00:29;;;;;;;5.13;2.05;;;12.70;99.90;;;;;;5027975;28;20033;-71
2022/06/04 04:02:55;;;;;;;7.22;2.22;;;12.70;99.90;;;;;;5029081;28;20049;-71
2022/06/04 04:05:25;;;;;;;4.20;2.17;;;12.70;99.90;;;;;;5028593;28;20071;-72
2022/06/04 04:07:51;;;;;;;3.75;2.00;;;12.80;99.90;;;;;;5028971;28;20520;-71
2022/06/04 04:10:17;;;;;;;5.60;2.58;;;12.80;99.90;;;;;;5028330;28;20049;-72
2022/06/04 04:12:43;;;;;;;5.95;2.45;;;12.80;99.90;;;;;;5029280;28;20036;-71
2022/06/04 04:15:10;;;;;;;4.70;1.90;;;12.80;99.90;;;;;;5028761;28;20030;-72
2022/06/04 04:17:39;;;;;;;13.02;2.63;;;12.80;99.90;;;;;;5028499;28;20043;-72
2022/06/04 04:20:15;;;;;;;7.13;2.75;;;12.90;99.90;;;;;;5029049;28;20029;-72
2022/06/04 04:22:42;;;;;;;7.88;2.33;;;12.80;99.90;;;;;;5020473;28;20041;-71
2022/06/04 04:25:08;;;;;;;6.00;2.22;;;12.80;99.90;;;;;;5026462;28;20041;-72
2022/06/04 04:27:34;;;;;;;6.38;2.10;;;12.90;99.90;;;;;;5028827;28;20029;-71
2022/06/04 04:30:00;;;;;;;8.15;2.42;;;12.90;99.90;;;;;;5028968;28;20044;-71
2022/06/04 04:32:26;;;;;;;6.30;2.17;;;13.00;99.90;;;;;;5027093;28;20025;-71
2022/06/04 04:34:52;;;;;;;7.32;1.75;;;13.00;99.90;;;;;;5028460;28;20473;-71
2022/06/04 04:37:17;;;;;;;9.73;2.28;;;13.10;99.90;;;;;;5027442;28;20116;-71
2022/06/04 04:39:43;;;;;;;6.80;1.90;;;13.10;99.90;;;;;;5028554;28;20568;-71
2022/06/04 04:42:09;;;;;;;7.07;1.88;;;13.20;99.90;;;;;;5020107;28;20120;-71
2022/06/04 04:44:34;;;;;;;9.10;2.08;;;13.30;99.90;;;;;;5027808;28;20029;-71
2022/06/04 04:47:00;;;;;;;4.72;1.73;;;13.40;99.90;;;;;;5028070;28;20790;-71
2022/06/04 04:49:26;;;;;;;7.43;2.30;;;13.50;99.90;;;;;;5026452;28;20037;-71
2022/06/04 04:51:51;;;;;;;5.60;2.00;;;13.50;99.90;;;;;;5028030;28;20040;-71
2022/06/04 04:54:17;;;;;;;10.32;2.63;;;13.50;99.90;;;;;;5027027;28;20120;-71
2022/06/04 04:56:44;;;;;;;4.50;2.00;;;13.50;99.90;;;;;;5028975;28;20072;-71
2022/06/04 04:59:10;;;;;;;7.70;2.50;;;13.50;99.90;;;;;;5026024;28;20084;-71
2022/06/04 05:01:36;;;;;;;14.38;3.20;;;13.60;99.90;;;;;;5027129;28;20037;-71
2022/06/04 05:04:01;;;;;;;7.70;2.10;;;13.50;99.90;;;;;;5027996;28;20119;-71
2022/06/04 05:06:27;;;;;;;5.40;2.22;;;13.50;99.90;;;;;;5027723;28;20463;-71
2022/06/04 05:08:53;;;;;;;7.47;2.15;;;13.50;99.90;;;;;;5029067;28;20041;-71
2022/06/04 05:11:22;;;;;;;7.75;2.05;;;13.50;99.90;;;;;;5031111;28;20029;-71
2022/06/04 05:13:49;;;;;;;9.07;2.50;;;13.50;99.90;;;;;;5032205;28;20112;-71
2022/06/04 05:16:17;;;;;;;4.38;2.30;;;13.60;99.90;;;;;;5031361;28;20029;-71
2022/06/04 05:18:42;;;;;;;13.02;2.97;;;13.60;99.90;;;;;;5032005;28;20045;-71
2022/06/04 05:21:22;;;;;;;3.30;1.95;;;13.70;99.90;;;;;;5031630;28;20040;-72
2022/06/04 05:23:49;;;;;;;6.60;1.98;;;13.70;99.90;;;;;;5026551;28;20042;-71
2022/06/04 05:26:15;;;;;;;2.63;2.00;;;13.60;99.90;;;;;;5029602;28;20040;-72
2022/06/04 05:28:41;;;;;;;6.38;2.67;;;13.70;99.90;;;;;;5032009;28;20515;-71
2022/06/04 05:31:07;;;;;;;9.32;2.22;;;13.70;99.90;;;;;;5031177;28;20057;-72
2022/06/04 05:33:32;;;;;;;4.10;2.70;;;13.70;99.90;;;;;;5031207;28;20056;-71
2022/06/04 05:35:58;;;;;;;9.50;2.05;;;13.70;99.90;;;;;;5031827;28;20042;-72
2022/06/04 05:38:24;;;;;;;4.35;2.05;;;13.70;99.90;;;;;;5030389;28;20065;-71
2022/06/04 05:41:01;;;;;;;10.70;2.47;;;13.80;99.90;;;;;;5032533;28;20041;-71
2022/06/04 05:43:27;;;;;;;4.97;2.05;;;14.00;99.90;;;;;;5031062;28;20132;-71
2022/06/04 05:46:07;;;;;;;8.75;2.50;;;14.30;99.90;;;;;;5031600;28;20030;-71
2022/06/04 05:48:36;;;;;;;9.80;1.98;;;14.50;99.90;;;;;;5031367;28;20124;-71
2022/06/04 05:51:02;;;;;;;6.40;2.08;;;14.60;99.90;;;;;;5032011;28;20077;-71
2022/06/04 05:53:27;;;;;;;3.45;1.88;;;14.80;99.90;;;;;;5030940;28;20034;-71
2022/06/04 05:55:53;;;;;;;6.55;1.98;;;15.30;99.90;;;;;;5031802;28;20041;-71
2022/06/04 05:58:19;;;;;;;7.43;1.83;;;15.80;99.90;;;;;;5031173;28;20029;-72
2022/06/04 06:00:45;;;;;;;7.30;1.73;;;16.00;99.90;;;;;;5033841;28;20033;-71
2022/06/04 06:03:11;;;;;;;4.72;1.65;;;16.30;99.90;;;;;;5030910;28;20469;-72
2022/06/04 06:05:45;;;;;;;4.90;2.20;;;16.50;99.90;;;;;;5031671;28;20052;-71
2022/06/04 06:08:12;;;;;;;5.63;2.05;;;16.60;99.90;;;;;;5024757;28;20760;-72
2022/06/04 06:10:47;;;;;;;7.50;1.95;;;16.70;99.90;;;;;;5031363;28;20041;-71
2022/06/04 06:13:12;;;;;;;7.30;1.80;;;16.50;99.90;;;;;;5025326;28;20393;-72
2022/06/04 06:15:38;;;;;;;4.30;2.03;;;16.60;99.90;;;;;;5031348;28;20097;-73
2022/06/04 06:18:05;;;;;;;4.95;1.67;;;16.90;99.90;;;;;;5038678;28;20039;-71
2022/06/04 06:20:32;;;;;;;3.70;1.63;;;17.20;99.90;;;;;;5030855;28;20056;-71
2022/06/04 06:22:57;;;;;;;9.05;1.85;;;17.50;99.90;;;;;;5031073;28;20039;-72
2022/06/04 06:25:23;;;;;;;7.68;1.55;;;17.50;99.90;;;;;;5029308;28;20046;-72
2022/06/04 06:27:49;;;;;;;5.00;1.88;;;17.40;99.90;;;;;;5031793;28;20444;-71
2022/06/04 06:30:15;;;;;;;4.47;1.80;;;17.10;99.90;;;;;;5030584;28;20045;-72
2022/06/04 06:32:41;;;;;;;6.40;1.67;;;16.90;99.90;;;;;;5031615;28;20033;-72
2022/06/04 06:35:08;;;;;;;5.80;2.35;;;16.70;99.90;;;;;;5029730;28;20454;-72
2022/06/04 06:37:34;;;;;;;7.35;1.75;;;16.70;99.90;;;;;;5031106;28;20054;-71
2022/06/04 06:40:00;;;;;;;5.40;1.42;;;16.50;99.90;;;;;;5031165;28;20068;-71
2022/06/04 06:42:26;;;;;;;5.95;1.60;;;16.30;99.90;;;;;;5029973;28;20045;-71
2022/06/04 06:44:53;;;;;;;9.05;1.92;;;16.20;99.90;;;;;;5030642;28;20508;-71
2022/06/04 06:47:19;;;;;;;4.13;1.80;;;16.10;99.90;;;;;;5026941;28;20060;-72
2022/06/04 06:49:44;;;;;;;3.40;1.60;;;16.00;99.90;;;;;;5026732;28;20052;-71
2022/06/04 06:52:10;;;;;;;7.88;2.30;;;16.00;99.90;;;;;;5027995;28;20510;-72
2022/06/04 06:54:37;;;;;;;5.45;1.90;;;16.10;99.90;;;;;;5015337;28;20033;-71
2022/06/04 06:57:06;;;;;;;5.63;2.13;;;16.20;99.90;;;;;;5012287;28;20751;-71
2022/06/04 06:59:33;;;;;;;7.60;2.08;;;16.30;99.90;;;;;;5006041;28;20034;-71
2022/06/04 07:01:59;;;;;;;5.22;2.05;;;16.20;99.90;;;;;;5012325;28;20453;-71
2022/06/04 07:04:26;;;;;;;6.15;1.75;;;16.10;99.90;;;;;;5011930;28;20042;-71
2022/06/04 07:06:56;;;;;;;5.70;1.50;;;16.50;99.90;;;;;;5010611;28;20035;-72
2022/06/04 07:09:29;;;;;;;5.75;1.30;;;17.20;99.90;;;;;;5016421;28;20034;-72
2022/06/04 07:11:55;;;;;;;4.60;1.58;;;17.60;99.90;;;;;;5010136;28;20573;-71
2022/06/04 07:14:25;;;;;;;5.97;1.90;;;17.60;99.90;;;;;;5015614;28;20031;-72
2022/06/04 07:16:52;;;;;;;3.22;1.45;;;17.50;99.90;;;;;;5021172;28;20521;-71
2022/06/04 07:19:21;;;;;;;3.60;1.38;;;17.30;99.90;;;;;;5011088;28;20463;-71
2022/06/04 07:21:47;;;;;;;7.35;1.58;;;17.00;99.90;;;;;;5014834;28;20474;-71
2022/06/04 07:24:13;;;;;;;6.95;1.63;;;16.90;99.90;;;;;;5015310;28;20041;-72
2022/06/04 07:26:40;;;;;;;5.18;1.85;;;16.90;99.90;;;;;;5029939;28;20037;-72
2022/06/04 07:29:06;;;;;;;5.40;1.55;;;16.80;99.90;;;;;;5030369;28;20152;-72
2022/06/04 07:31:31;;;;;;;2.40;1.50;;;16.80;99.90;;;;;;5029485;28;20664;-71
2022/06/04 07:33:58;;;;;;;7.93;2.33;;;16.90;99.90;;;;;;5030548;28;20055;-72
2022/06/04 07:36:36;;;;;;;4.15;1.33;;;17.00;99.90;;;;;;5029652;28;20924;-72
2022/06/04 07:39:03;;;;;;;8.10;1.70;;;17.00;99.90;;;;;;5012022;28;20242;-71
2022/06/04 07:41:38;;;;;;;4.60;1.80;;;17.10;99.90;;;;;;5020967;28;20070;-71
2022/06/04 07:44:05;;;;;;;7.45;1.98;;;17.20;99.90;;;;;;5022708;28;20045;-71
2022/06/04 07:46:31;;;;;;;5.03;1.55;;;17.40;99.90;;;;;;5028691;28;20084;-72
2022/06/04 07:49:00;;;;;;;7.97;1.75;;;17.50;99.90;;;;;;5020267;28;20049;-71
2022/06/04 07:51:27;;;;;;;7.65;1.52;;;17.70;99.90;;;;;;5027055;28;20055;-70
2022/06/04 07:53:53;;;;;;;5.15;1.33;;;17.80;99.90;;;;;;5028451;28;20091;-71
2022/06/04 07:56:20;;;;;;;3.22;1.70;;;18.00;99.90;;;;;;5014488;28;20041;-71
2022/06/04 07:58:46;;;;;;;4.55;1.50;;;18.10;99.90;;;;;;5013055;28;20065;-71
2022/06/04 08:01:15;;;;;;;4.25;1.75;;;18.20;99.90;;;;;;5012556;28;20494;-71
2022/06/04 08:03:42;;;;;;;3.10;1.15;;;18.20;99.90;;;;;;5017432;28;20041;-71
2022/06/04 08:06:10;;;;;;;3.92;1.42;;;18.10;99.90;;;;;;5011308;28;20517;-73
2022/06/04 08:08:36;;;;;;;5.50;1.33;;;18.30;99.90;;;;;;5018756;28;20139;-71
2022/06/04 08:11:30;;;;;;;4.40;1.23;;;18.50;99.90;;;;;;5027519;28;20187;-71
2022/06/04 08:13:49;;;;;;;14.32;1.52;;;18.60;99.90;;;;;;5025721;28;20033;-71
2022/06/04 08:16:14;;;;;;;7.20;1.20;;;18.70;99.90;;;;;;5024543;28;20042;-71
2022/06/04 08:18:40;;;;;;;3.83;1.58;;;18.90;99.90;;;;;;5026134;28;20383;-72
2022/06/04 08:21:06;;;;;;;5.28;1.50;;;18.80;99.90;;;;;;5031210;28;20038;-73
2022/06/04 08:23:32;;;;;;;6.03;1.40;;;18.90;99.90;;;;;;5028781;28;20076;-71
2022/06/04 08:25:58;;;;;;;2.50;1.50;;;18.80;99.90;;;;;;5028442;28;20104;-72
2022/06/04 08:28:23;;;;;;;3.50;1.23;;;18.70;99.90;;;;;;5027697;28;20164;-71
2022/06/04 08:31:01;;;;;;;7.35;1.60;;;18.50;99.90;;;;;;5028490;28;20127;-71
2022/06/04 08:33:26;;;;;;;6.40;1.58;;;18.40;99.90;;;;;;5019748;28;20033;-72
2022/06/04 08:35:52;;;;;;;4.95;1.35;;;18.40;99.90;;;;;;5024587;28;20629;-72
2022/06/04 08:38:18;;;;;;;7.43;1.02;;;18.40;99.90;;;;;;5025884;28;20161;-73
2022/06/04 08:40:52;;;;;;;5.57;1.17;;;18.40;99.90;;;;;;5028011;28;20405;-72
2022/06/04 08:43:33;;;;;;;4.93;1.40;;;18.50;99.90;;;;;;5023373;28;20514;-72
2022/06/04 08:46:03;;;;;;;;;;;18.50;99.90;;;;;;5025284;28;20090;-73
2022/06/04 08:48:32;;;;;;;4.87;1.50;;;18.60;99.90;;;;;;5023975;28;20297;-72
2022/06/04 08:50:58;;;;;;;6.25;1.48;;;18.70;99.90;;;;;;5024964;28;20498;-73
2022/06/04 08:53:30;;;;;;;4.25;1.10;;;18.80;99.90;;;;;;5030462;28;20072;-73
2022/06/04 08:58:59;;;;;;;3.65;1.10;;;19.10;99.90;;;;;;5017275;28;20052;-71
2022/06/04 09:01:56;;;;;;;4.97;1.67;;;19.30;99.90;;;;;;5022263;28;20047;-73
2022/06/04 09:04:30;;;;;;;8.57;1.33;;;19.50;99.90;;;;;;5019819;28;20060;-73
2022/06/04 09:07:17;;;;;;;1.58;0.85;;;19.70;99.90;;;;;;5017832;28;20034;-73
2022/06/04 09:10:10;;;;;;;3.92;1.63;;;19.90;99.90;;;;;;5027889;28;20575;-73
2022/06/04 09:12:59;;;;;;;2.40;0.77;;;20.10;99.90;;;;;;5028169;28;20453;-73
2022/06/04 09:15:31;;;;;;;3.30;1.37;;;20.40;99.90;;;;;;5022111;28;20034;-72
2022/06/04 09:18:01;;;;;;;5.00;1.15;;;20.40;99.80;;;;;;5031141;28;20065;-73
2022/06/04 09:21:02;;;;;;;7.43;1.30;;;20.40;99.70;;;;;;5023735;28;20032;-73
2022/06/04 09:23:33;;;;;;;3.30;1.10;;;20.50;99.80;;;;;;5022561;28;20347;-72
2022/06/04 09:26:14;;;;;;;3.03;1.15;;;20.30;99.50;;;;;;5028099;28;20409;-73
2022/06/04 09:28:54;;;;;;;6.28;1.55;;;20.20;99.50;;;;;;5015031;28;20033;-72
2022/06/04 09:31:32;;;;;;;4.28;1.27;;;20.00;99.70;;;;;;5016944;28;20121;-73
2022/06/04 09:34:08;;;;;;;3.05;1.13;;;19.90;99.70;;;;;;5016708;28;20069;-72
2022/06/04 09:36:37;;;;;;;3.78;1.00;;;20.00;99.90;;;;;;5018504;28;20045;-72
2022/06/04 09:39:33;;;;;;;4.65;1.38;;;19.90;99.90;;;;;;5017655;28;20085;-72
2022/06/04 09:42:18;;;;;;;2.45;1.05;;;20.20;99.80;;;;;;5027844;28;20045;-72
2022/06/04 09:45:00;;;;;;;1.80;0.80;;;20.40;99.90;;;;;;5020924;28;20037;-72
2022/06/04 09:47:40;;;;;;;2.50;0.90;;;20.50;99.50;;;;;;5020902;28;20656;-71
2022/06/04 09:50:18;;;;;;;4.65;1.20;;;20.50;99.70;;;;;;5026796;28;20625;-73
2022/06/04 09:52:55;;;;;;;5.18;1.27;;;20.60;99.30;;;;;;5030689;28;20029;-72
2022/06/04 09:55:23;;;;;;;2.17;1.17;;;20.70;99.30;;;;;;5029492;28;20029;-73
2022/06/04 09:58:19;;;;;;;6.75;1.73;;;21.00;99.40;;;;;;5030823;28;20110;-72
2022/06/04 10:00:56;;;;;;;2.53;1.17;;;21.30;98.40;;;;;;5000951;28;20113;-71
2022/06/04 10:03:22;;;;;;;5.22;1.60;;;21.40;98.00;;;;;;5019044;28;20095;-73
2022/06/04 10:05:53;;;;;;;2.10;1.17;;;21.50;98.00;;;;;;5030957;28;20105;-72
2022/06/04 10:08:25;;;;;;;3.85;1.23;;;22.00;97.10;;;;;;5028882;28;20036;-73
2022/06/04 10:10:58;;;;;;;2.03;1.17;;;21.90;97.30;;;;;;5022874;28;20120;-72
2022/06/04 10:13:42;;;;;;;4.68;1.20;;;22.00;96.60;;;;;;5022235;28;20133;-72
2022/06/04 10:16:16;;;;;;;2.50;1.52;;;21.90;96.10;;;;;;5023943;28;20037;-72
2022/06/04 10:19:13;;;;;;;4.35;1.10;;;21.70;96.30;;;;;;5029394;28;20044;-72
2022/06/04 10:21:41;;;;;;;4.03;0.93;;;21.50;96.40;;;;;;5027048;28;20033;-72
2022/06/04 10:24:25;;;;;;;3.10;0.80;;;21.20;96.60;;;;;;5029619;28;20043;-73
2022/06/04 10:26:54;;;;;;;2.85;1.20;;;21.20;96.90;;;;;;5026004;28;20521;-72
2022/06/04 10:29:26;;;;;;;1.48;1.00;;;21.10;96.10;;;;;;5021485;28;20144;-73
2022/06/04 10:32:13;;;;;;;2.55;1.02;;;21.00;96.60;;;;;;5023325;28;20033;-72
2022/06/04 10:34:58;;;;;;;4.45;1.10;;;21.10;96.70;;;;;;5026676;28;20056;-72
2022/06/04 10:37:51;;;;;;;2.58;0.70;;;21.10;96.50;;;;;;5021833;28;20049;-72
2022/06/04 10:40:42;;;;;;;2.08;1.10;;;21.10;97.00;;;;;;5029683;28;20056;-72
2022/06/04 10:43:19;;;;;;;2.35;0.93;;;21.20;96.90;;;;;;5026272;28;20037;-72
2022/06/04 10:46:03;;;;;;;4.32;1.23;;;21.40;96.80;;;;;;5029506;28;20048;-72
2022/06/04 10:48:50;;;;;;;2.40;0.90;;;21.40;96.80;;;;;;5024007;28;20037;-72
2022/06/04 10:51:48;;;;;;;3.78;1.00;;;21.30;96.80;;;;;;5028611;28;20038;-72
2022/06/04 10:54:35;;;;;;;3.65;1.33;;;21.30;97.10;;;;;;5027783;28;20137;-71
2022/06/04 10:57:13;;;;;;;4.40;1.17;;;21.40;96.50;;;;;;5022561;28;20096;-72
2022/06/04 10:59:59;;;;;;;3.97;1.17;;;21.50;96.70;;;;;;5021024;28;20403;-71
2022/06/04 11:02:45;;;;;;;3.13;1.10;;;21.60;96.30;;;;;;5010056;28;20091;-71
2022/06/04 11:05:27;;;;;;;2.72;1.00;;;21.50;96.10;;;;;;4996560;28;20452;-72
2022/06/04 11:08:17;;;;;;;2.17;0.95;;;21.60;96.30;;;;;;5021911;28;20464;-71
2022/06/04 11:10:53;;;;;;;1.52;1.05;;;21.60;96.20;;;;;;5028445;28;20034;-71
2022/06/04 11:13:40;;;;;;;5.85;1.33;;;21.70;96.40;;;;;;5021442;28;20029;-71
2022/06/04 11:16:33;;;;;;;2.83;0.98;;;21.70;96.50;;;;;;5023445;28;20034;-72
2022/06/04 11:19:10;;;;;;;2.13;1.20;;;21.60;96.70;;;;;;5021575;28;20053;-71
2022/06/04 11:21:41;;;;;;;1.48;0.90;;;21.60;96.30;;;;;;5028708;28;20087;-72
2022/06/04 11:24:16;;;;;;;2.63;1.15;;;21.50;96.30;;;;;;5028692;28;20144;-72
2022/06/04 11:26:44;;;;;;;2.85;1.20;;;21.50;96.60;;;;;;5025860;28;20041;-71
2022/06/04 11:29:17;;;;;;;2.90;1.30;;;21.50;95.80;;;;;;5044902;28;20748;-68
2022/06/04 11:31:46;;;;;;;6.10;1.30;;;21.60;95.80;;;;;;5021305;28;20029;-68
2022/06/04 11:34:38;;;;;;;3.25;1.30;;;21.80;95.50;;;;;;5001779;28;20090;-67
2022/06/04 11:37:19;;;;;;;2.47;0.90;;;21.80;95.80;;;;;;4992902;28;20038;-67
2022/06/04 11:39:57;;;;;;;3.67;0.93;;;21.70;97.00;;;;;;4991591;28;20054;-64
2022/06/04 11:42:44;;;;;;;1.67;0.77;;;21.70;96.90;;;;;;4987460;28;20034;-66
2022/06/04 11:45:57;;;;;;;2.45;1.08;;;21.70;96.00;;;;;;4990911;28;20053;-67
2022/06/04 11:48:44;;;;;;;2.67;1.10;;;21.80;96.90;;;;;;4995756;28;20041;-69
2022/06/04 11:51:37;;;;;;;4.65;1.02;;;21.70;96.00;;;;;;5006908;28;20039;-71
2022/06/04 11:54:24;;;;;;;5.07;1.70;;;21.50;96.60;;;;;;4991451;28;20072;-69
2022/06/04 11:56:58;;;;;;;3.08;1.50;;;21.40;96.20;;;;;;4987947;28;20451;-69
2022/06/04 11:59:57;;;;;;;6.40;1.67;;;21.30;96.30;;;;;;4993322;28;20660;-67
2022/06/04 12:02:39;;;;;;;7.88;1.05;;;21.30;96.40;;;;;;4988940;28;20213;-69
2022/06/04 12:05:21;;;;;;;2.33;1.00;;;21.30;96.70;;;;;;4992037;28;20038;-69
2022/06/04 12:07:51;;;;;;;5.20;1.13;;;21.30;96.50;;;;;;4995094;28;20034;-69
2022/06/04 12:10:28;;;;;;;4.68;0.95;;;21.40;97.10;;;;;;4987604;28;20034;-69
2022/06/04 12:13:06;;;;;;;2.33;1.10;;;21.40;97.00;;;;;;4989381;28;20499;-69
2022/06/04 12:15:50;;;;;;;2.00;1.13;;;21.50;96.60;;;;;;4994178;28;20038;-69
2022/06/04 12:18:49;;;;;;;6.13;1.58;;;21.40;96.90;;;;;;4987529;28;20376;-68
2022/06/04 12:24:37;;;;;;;5.60;1.03;;;21.10;96.60;;;;;;5006087;28;20044;-69
2022/06/04 12:27:24;;;;;;;2.42;1.15;;;21.00;96.60;;;;;;4993590;28;20753;-69
2022/06/04 12:29:56;;;;;;;4.28;1.35;;;20.80;96.50;;;;;;4985793;28;20120;-69
2022/06/04 12:32:35;;;;;;;3.53;1.00;;;20.80;96.70;;;;;;4987454;28;20188;-66
2022/06/04 12:35:05;;;;;;;3.83;1.10;;;20.70;97.50;;;;;;4990117;28;20034;-68
2022/06/04 12:37:34;;;;;;;3.92;1.17;;;20.80;98.10;;;;;;4992918;28;20031;-68
2022/06/04 12:40:24;;;;;;;5.90;1.00;;;20.90;97.30;;;;;;4983436;28;20034;-69
2022/06/04 12:43:06;;;;;;;3.60;1.15;;;21.10;96.90;;;;;;4974560;28;20585;-69
2022/06/04 12:45:41;;;;;;;2.30;0.93;;;21.30;96.20;;;;;;4971944;28;20563;-69
2022/06/04 12:48:25;;;;;;;6.28;1.10;;;21.50;97.30;;;;;;4975015;28;20536;-69
2022/06/04 12:51:11;;;;;;;3.90;1.40;;;21.80;97.30;;;;;;4989913;28;20045;-70
2022/06/04 12:53:55;;;;;;;3.70;1.30;;;22.20;96.00;;;;;;4980615;28;20038;-70
2022/06/04 12:56:30;;;;;;;4.78;1.25;;;22.50;95.60;;;;;;4976333;28;20825;-67
2022/06/04 12:58:58;;;;;;;2.78;1.30;;;22.80;95.40;;;;;;4979283;28;20034;-67
2022/06/04 13:01:29;;;;;;;1.90;1.17;;;23.10;95.00;;;;;;4977853;28;20038;-67
2022/06/04 13:04:10;;;;;;;7.57;1.85;;;23.00;94.60;;;;;;4980004;28;20483;-67
2022/06/04 13:06:43;;;;;;;4.63;1.70;;;23.00;94.70;;;;;;4973613;28;20042;-67
2022/06/04 13:09:21;;;;;;;6.00;1.60;;;22.90;94.30;;;;;;4976824;28;20125;-67
2022/06/04 13:12:14;;;;;;;6.85;1.55;;;22.80;94.60;;;;;;4979413;28;20034;-63
2022/06/04 13:14:49;;;;;;;5.50;1.40;;;22.80;94.30;;;;;;4980715;28;20034;-65
2022/06/04 13:17:15;;;;;;;2.33;0.93;;;22.80;94.70;;;;;;4973468;28;20380;-67
2022/06/04 13:20:11;;;;;;;2.55;1.08;;;22.70;94.90;;;;;;4979031;28;20055;-66
2022/06/04 13:22:53;;;;;;;2.45;1.40;;;22.50;95.50;;;;;;4975665;28;20042;-69
2022/06/04 13:25:31;;;;;;;3.78;1.27;;;22.30;95.40;;;;;;4977491;28;20080;-65
2022/06/04 13:27:57;;;;;;;3.53;1.52;;;22.20;95.70;;;;;;4978334;28;20039;-66
2022/06/04 13:30:27;;;;;;;3.47;1.45;;;22.20;95.30;;;;;;4977766;28;20405;-68
2022/06/04 13:33:13;;;;;;;6.95;1.45;;;22.20;95.40;;;;;;4977697;28;20098;-67